sensor_id;sensor_type;location;lat;lon;timestamp;temperature;humidity
61253;DHT22;47127;47.516;8.596;2024-02-21T00:02:06;5.40;99.90
61253;DHT22;47127;47.516;8.596;2024-02-21T00:04:32;5.50;99.90
61253;DHT22;47127;47.516;8.596;2024-02-21T00:06:58;5.50;99.90
61253;DHT22;47127;47.516;8.596;2024-02-21T00:09:24;5.60;99.90
61253;DHT22;47127;47.516;8.596;2024-02-21T00:11:50;5.20;99.90
61253;DHT22;47127;47.516;8.596;2024-02-21T00:14:17;5.00;99.90
61253;DHT22;47127;47.516;8.596;2024-02-21T00:16:43;4.80;99.90
61253;DHT22;47127;47.516;8.596;2024-02-21T00:19:08;4.70;99.90
61253;DHT22;47127;47.516;8.596;2024-02-21T00:21:35;4.70;99.90
61253;DHT22;47127;47.516;8.596;2024-02-21T00:24:01;4.70;99.90
61253;DHT22;47127;47.516;8.596;2024-02-21T00:26:26;4.80;99.90
61253;DHT22;47127;47.516;8.596;2024-02-21T00:28:52;4.90;99.90
61253;DHT22;47127;47.516;8.596;2024-02-21T00:31:18;5.00;99.90
61253;DHT22;47127;47.516;8.596;2024-02-21T00:33:43;5.00;99.90
61253;DHT22;47127;47.516;8.596;2024-02-21T00:36:09;5.00;99.90
61253;DHT22;47127;47.516;8.596;2024-02-21T00:38:35;5.00;99.90
61253;DHT22;47127;47.516;8.596;2024-02-21T00:41:00;5.00;99.90
61253;DHT22;47127;47.516;8.596;2024-02-21T00:43:26;4.90;99.90
61253;DHT22;47127;47.516;8.596;2024-02-21T00:45:51;5.00;99.90
61253;DHT22;47127;47.516;8.596;2024-02-21T00:48:18;4.90;99.90
61253;DHT22;47127;47.516;8.596;2024-02-21T00:50:44;4.90;99.90
61253;DHT22;47127;47.516;8.596;2024-02-21T00:53:09;4.80;99.90
61253;DHT22;47127;47.516;8.596;2024-02-21T00:55:35;4.80;99.90
61253;DHT22;47127;47.516;8.596;2024-02-21T00:58:01;4.80;99.90
61253;DHT22;47127;47.516;8.596;2024-02-21T01:00:27;4.90;99.90
61253;DHT22;47127;47.516;8.596;2024-02-21T01:02:52;5.00;99.90
61253;DHT22;47127;47.516;8.596;2024-02-21T01:05:18;5.00;99.90
61253;DHT22;47127;47.516;8.596;2024-02-21T01:07:44;5.00;99.90
61253;DHT22;47127;47.516;8.596;2024-02-21T01:10:10;5.10;99.90
61253;DHT22;47127;47.516;8.596;2024-02-21T01:12:36;5.20;99.90
61253;DHT22;47127;47.516;8.596;2024-02-21T01:15:02;5.10;99.90
61253;DHT22;47127;47.516;8.596;2024-02-21T01:17:28;5.10;99.90
61253;DHT22;47127;47.516;8.596;2024-02-21T01:19:54;5.10;99.90
61253;DHT22;47127;47.516;8.596;2024-02-21T01:22:19;5.10;99.90
61253;DHT22;47127;47.516;8.596;2024-02-21T01:24:45;5.10;99.90
61253;DHT22;47127;47.516;8.596;2024-02-21T01:27:12;5.20;99.90
61253;DHT22;47127;47.516;8.596;2024-02-21T01:29:37;5.00;99.90
61253;DHT22;47127;47.516;8.596;2024-02-21T01:32:03;4.80;99.90
61253;DHT22;47127;47.516;8.596;2024-02-21T01:34:28;4.70;99.90
61253;DHT22;47127;47.516;8.596;2024-02-21T01:36:54;4.70;99.90
61253;DHT22;47127;47.516;8.596;2024-02-21T01:39:19;4.80;99.90
61253;DHT22;47127;47.516;8.596;2024-02-21T01:41:46;4.80;99.90
61253;DHT22;47127;47.516;8.596;2024-02-21T01:44:12;4.90;99.90
61253;DHT22;47127;47.516;8.596;2024-02-21T01:46:38;4.90;99.90
61253;DHT22;47127;47.516;8.596;2024-02-21T01:49:04;5.00;99.90
61253;DHT22;47127;47.516;8.596;2024-02-21T01:51:30;4.90;99.90
61253;DHT22;47127;47.516;8.596;2024-02-21T01:53:56;5.00;99.90
61253;DHT22;47127;47.516;8.596;2024-02-21T01:56:23;4.90;99.90
61253;DHT22;47127;47.516;8.596;2024-02-21T01:58:51;5.10;99.90
61253;DHT22;47127;47.516;8.596;2024-02-21T02:01:18;5.20;99.90
61253;DHT22;47127;47.516;8.596;2024-02-21T02:03:45;5.30;99.90
61253;DHT22;47127;47.516;8.596;2024-02-21T02:06:12;5.40;99.90
61253;DHT22;47127;47.516;8.596;2024-02-21T02:08:38;5.50;99.90
61253;DHT22;47127;47.516;8.596;2024-02-21T02:11:04;5.50;99.90
61253;DHT22;47127;47.516;8.596;2024-02-21T02:13:29;5.60;99.90
61253;DHT22;47127;47.516;8.596;2024-02-21T02:15:55;5.60;99.90
61253;DHT22;47127;47.516;8.596;2024-02-21T02:18:20;5.40;99.90
61253;DHT22;47127;47.516;8.596;2024-02-21T02:20:46;5.40;99.90
61253;DHT22;47127;47.516;8.596;2024-02-21T02:23:28;5.50;99.90
61253;DHT22;47127;47.516;8.596;2024-02-21T02:25:54;5.40;99.90
61253;DHT22;47127;47.516;8.596;2024-02-21T02:28:21;5.30;99.90
61253;DHT22;47127;47.516;8.596;2024-02-21T02:30:47;5.30;99.90
61253;DHT22;47127;47.516;8.596;2024-02-21T02:33:13;5.30;99.90
61253;DHT22;47127;47.516;8.596;2024-02-21T02:35:38;5.50;99.90
61253;DHT22;47127;47.516;8.596;2024-02-21T02:38:04;5.50;99.90
61253;DHT22;47127;47.516;8.596;2024-02-21T02:40:34;5.60;99.90
61253;DHT22;47127;47.516;8.596;2024-02-21T02:43:00;5.50;99.90
61253;DHT22;47127;47.516;8.596;2024-02-21T02:45:25;5.50;99.90
61253;DHT22;47127;47.516;8.596;2024-02-21T02:47:52;5.60;99.90
61253;DHT22;47127;47.516;8.596;2024-02-21T02:50:19;5.60;99.90
61253;DHT22;47127;47.516;8.596;2024-02-21T02:52:45;5.50;99.90
61253;DHT22;47127;47.516;8.596;2024-02-21T02:55:11;5.50;99.90
61253;DHT22;47127;47.516;8.596;2024-02-21T02:57:37;5.60;99.90
61253;DHT22;47127;47.516;8.596;2024-02-21T03:00:05;5.60;99.90
61253;DHT22;47127;47.516;8.596;2024-02-21T03:02:32;5.60;99.90
61253;DHT22;47127;47.516;8.596;2024-02-21T03:04:57;5.60;99.90
61253;DHT22;47127;47.516;8.596;2024-02-21T03:07:25;5.70;99.90
61253;DHT22;47127;47.516;8.596;2024-02-21T03:09:51;5.70;99.90
61253;DHT22;47127;47.516;8.596;2024-02-21T03:12:18;5.70;99.90
61253;DHT22;47127;47.516;8.596;2024-02-21T03:14:50;5.60;99.90
61253;DHT22;47127;47.516;8.596;2024-02-21T03:17:16;5.50;99.90
61253;DHT22;47127;47.516;8.596;2024-02-21T03:19:41;5.50;99.90
61253;DHT22;47127;47.516;8.596;2024-02-21T03:22:07;5.50;99.90
61253;DHT22;47127;47.516;8.596;2024-02-21T03:24:33;5.40;99.90
61253;DHT22;47127;47.516;8.596;2024-02-21T03:26:59;5.50;99.90
61253;DHT22;47127;47.516;8.596;2024-02-21T03:29:26;5.50;99.90
61253;DHT22;47127;47.516;8.596;2024-02-21T03:31:52;5.50;99.90
61253;DHT22;47127;47.516;8.596;2024-02-21T03:34:17;5.50;99.90
61253;DHT22;47127;47.516;8.596;2024-02-21T03:36:43;5.50;99.90
61253;DHT22;47127;47.516;8.596;2024-02-21T03:39:08;5.50;99.90
61253;DHT22;47127;47.516;8.596;2024-02-21T03:41:35;5.40;99.90
61253;DHT22;47127;47.516;8.596;2024-02-21T03:44:00;5.50;99.90
61253;DHT22;47127;47.516;8.596;2024-02-21T03:46:27;5.50;99.90
61253;DHT22;47127;47.516;8.596;2024-02-21T03:48:53;5.40;99.90
61253;DHT22;47127;47.516;8.596;2024-02-21T03:51:18;5.50;99.90
61253;DHT22;47127;47.516;8.596;2024-02-21T03:53:44;5.50;99.90
61253;DHT22;47127;47.516;8.596;2024-02-21T03:56:10;5.50;99.90
61253;DHT22;47127;47.516;8.596;2024-02-21T03:58:35;5.50;99.90
61253;DHT22;47127;47.516;8.596;2024-02-21T04:01:01;5.50;99.90
61253;DHT22;47127;47.516;8.596;2024-02-21T04:03:27;5.50;99.90
61253;DHT22;47127;47.516;8.596;2024-02-21T04:05:53;5.50;99.90
61253;DHT22;47127;47.516;8.596;2024-02-21T04:08:20;5.50;99.90
61253;DHT22;47127;47.516;8.596;2024-02-21T04:10:45;5.60;99.90
61253;DHT22;47127;47.516;8.596;2024-02-21T04:13:12;5.60;99.90
61253;DHT22;47127;47.516;8.596;2024-02-21T04:15:37;5.70;99.90
61253;DHT22;47127;47.516;8.596;2024-02-21T04:18:03;5.60;99.90
61253;DHT22;47127;47.516;8.596;2024-02-21T04:20:29;5.30;99.90
61253;DHT22;47127;47.516;8.596;2024-02-21T04:22:55;5.10;99.90
61253;DHT22;47127;47.516;8.596;2024-02-21T04:25:20;5.00;99.90
61253;DHT22;47127;47.516;8.596;2024-02-21T04:27:47;4.90;99.90
61253;DHT22;47127;47.516;8.596;2024-02-21T04:30:13;4.90;99.90
61253;DHT22;47127;47.516;8.596;2024-02-21T04:32:39;4.80;99.90
61253;DHT22;47127;47.516;8.596;2024-02-21T04:35:06;4.80;99.90
61253;DHT22;47127;47.516;8.596;2024-02-21T04:37:32;4.70;99.90
61253;DHT22;47127;47.516;8.596;2024-02-21T04:39:58;4.70;99.90
61253;DHT22;47127;47.516;8.596;2024-02-21T04:42:23;4.60;99.90
61253;DHT22;47127;47.516;8.596;2024-02-21T04:44:49;4.60;99.90
61253;DHT22;47127;47.516;8.596;2024-02-21T04:47:14;4.60;99.90
61253;DHT22;47127;47.516;8.596;2024-02-21T04:49:40;4.70;99.90
61253;DHT22;47127;47.516;8.596;2024-02-21T04:52:05;4.70;99.90
61253;DHT22;47127;47.516;8.596;2024-02-21T04:54:31;4.70;99.90
61253;DHT22;47127;47.516;8.596;2024-02-21T04:56:57;4.70;99.90
61253;DHT22;47127;47.516;8.596;2024-02-21T04:59:23;4.70;99.90
61253;DHT22;47127;47.516;8.596;2024-02-21T05:01:49;4.90;99.90
61253;DHT22;47127;47.516;8.596;2024-02-21T05:04:15;4.90;99.90
61253;DHT22;47127;47.516;8.596;2024-02-21T05:06:41;4.90;99.90
61253;DHT22;47127;47.516;8.596;2024-02-21T05:09:07;5.00;99.90
61253;DHT22;47127;47.516;8.596;2024-02-21T05:11:36;4.90;99.90
61253;DHT22;47127;47.516;8.596;2024-02-21T05:14:03;4.90;99.90
61253;DHT22;47127;47.516;8.596;2024-02-21T05:16:29;4.80;99.90
61253;DHT22;47127;47.516;8.596;2024-02-21T05:18:54;4.90;99.90
61253;DHT22;47127;47.516;8.596;2024-02-21T05:21:22;4.90;99.90
61253;DHT22;47127;47.516;8.596;2024-02-21T05:23:49;4.90;99.90
61253;DHT22;47127;47.516;8.596;2024-02-21T05:26:22;4.90;99.90
61253;DHT22;47127;47.516;8.596;2024-02-21T05:28:48;4.90;99.90
61253;DHT22;47127;47.516;8.596;2024-02-21T05:31:15;4.80;99.90
61253;DHT22;47127;47.516;8.596;2024-02-21T05:33:42;4.80;99.90
61253;DHT22;47127;47.516;8.596;2024-02-21T05:36:08;4.80;99.90
61253;DHT22;47127;47.516;8.596;2024-02-21T05:38:33;4.90;99.90
61253;DHT22;47127;47.516;8.596;2024-02-21T05:40:59;5.00;99.90
61253;DHT22;47127;47.516;8.596;2024-02-21T05:43:24;5.00;99.90
61253;DHT22;47127;47.516;8.596;2024-02-21T05:45:50;5.00;99.90
61253;DHT22;47127;47.516;8.596;2024-02-21T05:48:15;5.00;99.90
61253;DHT22;47127;47.516;8.596;2024-02-21T05:50:41;4.90;99.90
61253;DHT22;47127;47.516;8.596;2024-02-21T05:53:06;4.80;99.90
61253;DHT22;47127;47.516;8.596;2024-02-21T05:55:35;4.80;99.90
61253;DHT22;47127;47.516;8.596;2024-02-21T05:58:01;4.80;99.90
61253;DHT22;47127;47.516;8.596;2024-02-21T06:00:27;4.70;99.90
61253;DHT22;47127;47.516;8.596;2024-02-21T06:02:53;4.70;99.90
61253;DHT22;47127;47.516;8.596;2024-02-21T06:05:20;4.80;99.90
61253;DHT22;47127;47.516;8.596;2024-02-21T06:07:45;4.70;99.90
61253;DHT22;47127;47.516;8.596;2024-02-21T06:10:11;4.70;99.90
61253;DHT22;47127;47.516;8.596;2024-02-21T06:12:38;4.80;99.90
61253;DHT22;47127;47.516;8.596;2024-02-21T06:15:04;4.80;99.90
61253;DHT22;47127;47.516;8.596;2024-02-21T06:17:30;4.70;99.90
61253;DHT22;47127;47.516;8.596;2024-02-21T06:19:55;4.80;99.90
61253;DHT22;47127;47.516;8.596;2024-02-21T06:22:21;4.80;99.90
61253;DHT22;47127;47.516;8.596;2024-02-21T06:24:47;4.80;99.90
61253;DHT22;47127;47.516;8.596;2024-02-21T06:27:12;4.80;99.90
61253;DHT22;47127;47.516;8.596;2024-02-21T06:29:40;5.00;99.90
61253;DHT22;47127;47.516;8.596;2024-02-21T06:32:05;5.00;99.90
61253;DHT22;47127;47.516;8.596;2024-02-21T06:34:31;5.00;99.90
61253;DHT22;47127;47.516;8.596;2024-02-21T06:36:57;5.00;99.90
61253;DHT22;47127;47.516;8.596;2024-02-21T06:39:22;5.00;99.90
61253;DHT22;47127;47.516;8.596;2024-02-21T06:41:49;5.10;99.90
61253;DHT22;47127;47.516;8.596;2024-02-21T06:44:16;5.10;99.90
61253;DHT22;47127;47.516;8.596;2024-02-21T06:46:42;5.10;99.90
61253;DHT22;47127;47.516;8.596;2024-02-21T06:49:07;5.10;99.90
61253;DHT22;47127;47.516;8.596;2024-02-21T06:51:33;5.10;99.90
61253;DHT22;47127;47.516;8.596;2024-02-21T06:54:00;5.00;99.90
61253;DHT22;47127;47.516;8.596;2024-02-21T06:56:25;4.90;99.90
61253;DHT22;47127;47.516;8.596;2024-02-21T06:58:55;5.00;99.90
61253;DHT22;47127;47.516;8.596;2024-02-21T07:01:21;5.10;99.90
61253;DHT22;47127;47.516;8.596;2024-02-21T07:03:46;5.10;99.90
61253;DHT22;47127;47.516;8.596;2024-02-21T07:06:12;5.10;99.90
61253;DHT22;47127;47.516;8.596;2024-02-21T07:08:44;5.20;99.90
61253;DHT22;47127;47.516;8.596;2024-02-21T07:11:09;5.50;99.90
61253;DHT22;47127;47.516;8.596;2024-02-21T07:13:35;5.30;99.90
61253;DHT22;47127;47.516;8.596;2024-02-21T07:16:00;5.40;99.90
61253;DHT22;47127;47.516;8.596;2024-02-21T07:18:27;5.40;99.90
61253;DHT22;47127;47.516;8.596;2024-02-21T07:20:52;5.40;99.90
61253;DHT22;47127;47.516;8.596;2024-02-21T07:23:18;5.40;99.90
61253;DHT22;47127;47.516;8.596;2024-02-21T07:25:44;5.40;99.90
61253;DHT22;47127;47.516;8.596;2024-02-21T07:28:10;5.50;99.90
61253;DHT22;47127;47.516;8.596;2024-02-21T07:30:35;5.60;99.90
61253;DHT22;47127;47.516;8.596;2024-02-21T07:33:01;5.50;99.90
61253;DHT22;47127;47.516;8.596;2024-02-21T07:35:27;5.60;99.90
61253;DHT22;47127;47.516;8.596;2024-02-21T07:37:53;5.70;99.90
61253;DHT22;47127;47.516;8.596;2024-02-21T07:40:18;5.80;99.90
61253;DHT22;47127;47.516;8.596;2024-02-21T07:42:44;5.80;99.90
61253;DHT22;47127;47.516;8.596;2024-02-21T07:45:10;5.90;99.90
61253;DHT22;47127;47.516;8.596;2024-02-21T07:47:36;5.80;99.90
61253;DHT22;47127;47.516;8.596;2024-02-21T07:50:03;5.90;99.90
61253;DHT22;47127;47.516;8.596;2024-02-21T07:52:29;5.90;99.90
61253;DHT22;47127;47.516;8.596;2024-02-21T07:54:54;6.10;99.90
61253;DHT22;47127;47.516;8.596;2024-02-21T07:57:20;6.20;99.90
61253;DHT22;47127;47.516;8.596;2024-02-21T07:59:46;6.30;99.90
61253;DHT22;47127;47.516;8.596;2024-02-21T08:02:14;6.30;99.90
61253;DHT22;47127;47.516;8.596;2024-02-21T08:04:41;6.30;99.90
61253;DHT22;47127;47.516;8.596;2024-02-21T08:07:08;6.40;99.90
61253;DHT22;47127;47.516;8.596;2024-02-21T08:09:33;6.30;99.90
61253;DHT22;47127;47.516;8.596;2024-02-21T08:11:59;6.50;99.90
61253;DHT22;47127;47.516;8.596;2024-02-21T08:14:25;6.50;99.90
61253;DHT22;47127;47.516;8.596;2024-02-21T08:16:51;6.60;99.90
61253;DHT22;47127;47.516;8.596;2024-02-21T08:19:19;6.60;99.90
61253;DHT22;47127;47.516;8.596;2024-02-21T08:21:45;6.70;99.90
61253;DHT22;47127;47.516;8.596;2024-02-21T08:24:13;6.80;99.90
61253;DHT22;47127;47.516;8.596;2024-02-21T08:26:42;6.90;99.90
61253;DHT22;47127;47.516;8.596;2024-02-21T08:29:07;6.90;99.90
61253;DHT22;47127;47.516;8.596;2024-02-21T08:31:33;7.10;99.90
61253;DHT22;47127;47.516;8.596;2024-02-21T08:34:00;7.20;99.90
61253;DHT22;47127;47.516;8.596;2024-02-21T08:36:30;7.30;99.90
61253;DHT22;47127;47.516;8.596;2024-02-21T08:38:56;7.30;99.90
61253;DHT22;47127;47.516;8.596;2024-02-21T08:41:23;7.40;99.90
61253;DHT22;47127;47.516;8.596;2024-02-21T08:43:53;7.60;99.90
61253;DHT22;47127;47.516;8.596;2024-02-21T08:46:22;7.60;99.90
61253;DHT22;47127;47.516;8.596;2024-02-21T08:48:50;7.70;99.90
61253;DHT22;47127;47.516;8.596;2024-02-21T08:51:17;7.70;99.90
61253;DHT22;47127;47.516;8.596;2024-02-21T08:53:44;7.80;99.90
61253;DHT22;47127;47.516;8.596;2024-02-21T08:56:10;7.90;99.90
61253;DHT22;47127;47.516;8.596;2024-02-21T08:58:36;8.00;99.90
61253;DHT22;47127;47.516;8.596;2024-02-21T09:01:03;8.20;99.90
61253;DHT22;47127;47.516;8.596;2024-02-21T09:03:39;8.20;99.90
61253;DHT22;47127;47.516;8.596;2024-02-21T09:06:07;8.40;99.90
61253;DHT22;47127;47.516;8.596;2024-02-21T09:08:33;8.50;99.90
61253;DHT22;47127;47.516;8.596;2024-02-21T09:11:00;8.50;99.90
61253;DHT22;47127;47.516;8.596;2024-02-21T09:13:27;8.60;99.90
61253;DHT22;47127;47.516;8.596;2024-02-21T09:15:53;8.80;99.90
61253;DHT22;47127;47.516;8.596;2024-02-21T09:18:19;8.90;99.90
61253;DHT22;47127;47.516;8.596;2024-02-21T09:20:45;9.00;99.90
61253;DHT22;47127;47.516;8.596;2024-02-21T09:23:11;8.90;99.90
61253;DHT22;47127;47.516;8.596;2024-02-21T09:25:37;8.90;99.90
61253;DHT22;47127;47.516;8.596;2024-02-21T09:28:03;9.00;99.90
61253;DHT22;47127;47.516;8.596;2024-02-21T09:30:29;9.00;99.90
61253;DHT22;47127;47.516;8.596;2024-02-21T09:32:55;9.10;99.90
61253;DHT22;47127;47.516;8.596;2024-02-21T09:35:24;9.20;99.90
61253;DHT22;47127;47.516;8.596;2024-02-21T09:37:52;9.20;99.90
61253;DHT22;47127;47.516;8.596;2024-02-21T09:40:17;9.50;99.90
61253;DHT22;47127;47.516;8.596;2024-02-21T09:42:44;9.60;99.90
61253;DHT22;47127;47.516;8.596;2024-02-21T09:45:21;9.70;99.90
61253;DHT22;47127;47.516;8.596;2024-02-21T09:48:10;9.60;99.90
61253;DHT22;47127;47.516;8.596;2024-02-21T09:50:40;9.50;99.90
61253;DHT22;47127;47.516;8.596;2024-02-21T09:53:09;9.50;99.90
61253;DHT22;47127;47.516;8.596;2024-02-21T09:55:37;9.60;99.90
61253;DHT22;47127;47.516;8.596;2024-02-21T09:58:05;9.60;99.90
61253;DHT22;47127;47.516;8.596;2024-02-21T10:00:31;9.70;99.90
61253;DHT22;47127;47.516;8.596;2024-02-21T10:02:58;9.80;99.90
61253;DHT22;47127;47.516;8.596;2024-02-21T10:05:23;9.90;99.90
61253;DHT22;47127;47.516;8.596;2024-02-21T10:07:51;9.90;99.90
61253;DHT22;47127;47.516;8.596;2024-02-21T10:10:17;10.00;99.90
61253;DHT22;47127;47.516;8.596;2024-02-21T10:12:52;10.00;99.90
61253;DHT22;47127;47.516;8.596;2024-02-21T10:15:23;9.90;99.90
61253;DHT22;47127;47.516;8.596;2024-02-21T10:18:00;10.20;99.90
61253;DHT22;47127;47.516;8.596;2024-02-21T10:20:27;10.20;99.90
61253;DHT22;47127;47.516;8.596;2024-02-21T10:23:03;10.10;99.90
61253;DHT22;47127;47.516;8.596;2024-02-21T10:25:36;10.10;99.90
61253;DHT22;47127;47.516;8.596;2024-02-21T10:28:12;10.20;99.90
61253;DHT22;47127;47.516;8.596;2024-02-21T10:30:38;10.20;99.90
61253;DHT22;47127;47.516;8.596;2024-02-21T10:33:05;10.10;99.90
61253;DHT22;47127;47.516;8.596;2024-02-21T10:35:34;10.20;99.90
61253;DHT22;47127;47.516;8.596;2024-02-21T10:38:01;10.30;99.90
61253;DHT22;47127;47.516;8.596;2024-02-21T10:40:29;10.30;99.90
61253;DHT22;47127;47.516;8.596;2024-02-21T10:43:00;10.40;99.90
61253;DHT22;47127;47.516;8.596;2024-02-21T10:45:34;10.50;99.90
61253;DHT22;47127;47.516;8.596;2024-02-21T10:48:14;10.60;99.90
61253;DHT22;47127;47.516;8.596;2024-02-21T10:51:02;10.80;99.90
61253;DHT22;47127;47.516;8.596;2024-02-21T10:56:21;10.80;99.90
61253;DHT22;47127;47.516;8.596;2024-02-21T10:58:50;10.80;99.90
61253;DHT22;47127;47.516;8.596;2024-02-21T11:01:16;10.80;99.90
61253;DHT22;47127;47.516;8.596;2024-02-21T11:03:45;10.90;99.90
61253;DHT22;47127;47.516;8.596;2024-02-21T11:06:12;11.00;99.90
61253;DHT22;47127;47.516;8.596;2024-02-21T11:08:39;11.10;99.90
61253;DHT22;47127;47.516;8.596;2024-02-21T11:11:05;11.30;99.90
61253;DHT22;47127;47.516;8.596;2024-02-21T11:13:37;11.30;99.90
61253;DHT22;47127;47.516;8.596;2024-02-21T11:16:11;11.00;99.90
61253;DHT22;47127;47.516;8.596;2024-02-21T11:18:39;11.20;99.90
61253;DHT22;47127;47.516;8.596;2024-02-21T11:21:06;11.30;99.90
61253;DHT22;47127;47.516;8.596;2024-02-21T11:23:32;11.40;99.90
61253;DHT22;47127;47.516;8.596;2024-02-21T11:26:09;11.50;99.90
61253;DHT22;47127;47.516;8.596;2024-02-21T11:28:36;11.50;99.90
61253;DHT22;47127;47.516;8.596;2024-02-21T11:31:13;11.30;99.90
61253;DHT22;47127;47.516;8.596;2024-02-21T11:33:41;11.10;99.90
61253;DHT22;47127;47.516;8.596;2024-02-21T11:36:25;11.00;99.90
61253;DHT22;47127;47.516;8.596;2024-02-21T11:38:52;11.00;99.90
61253;DHT22;47127;47.516;8.596;2024-02-21T11:41:19;11.00;99.90
61253;DHT22;47127;47.516;8.596;2024-02-21T11:43:46;11.00;99.90
61253;DHT22;47127;47.516;8.596;2024-02-21T11:46:14;11.00;99.90
61253;DHT22;47127;47.516;8.596;2024-02-21T11:48:41;11.00;99.90
61253;DHT22;47127;47.516;8.596;2024-02-21T11:51:07;11.30;99.90
61253;DHT22;47127;47.516;8.596;2024-02-21T11:53:32;11.20;99.90
61253;DHT22;47127;47.516;8.596;2024-02-21T11:55:58;11.40;99.90
61253;DHT22;47127;47.516;8.596;2024-02-21T11:58:24;11.30;99.90
61253;DHT22;47127;47.516;8.596;2024-02-21T12:00:50;11.40;99.90
61253;DHT22;47127;47.516;8.596;2024-02-21T12:03:17;11.70;99.90
61253;DHT22;47127;47.516;8.596;2024-02-21T12:05:43;11.60;99.90
61253;DHT22;47127;47.516;8.596;2024-02-21T12:08:08;11.50;99.90
61253;DHT22;47127;47.516;8.596;2024-02-21T12:10:35;11.10;99.90
61253;DHT22;47127;47.516;8.596;2024-02-21T12:13:10;11.20;99.90
61253;DHT22;47127;47.516;8.596;2024-02-21T12:15:35;11.50;99.90
61253;DHT22;47127;47.516;8.596;2024-02-21T12:18:01;11.70;99.90
61253;DHT22;47127;47.516;8.596;2024-02-21T12:20:27;11.70;99.90
61253;DHT22;47127;47.516;8.596;2024-02-21T12:22:52;11.90;99.90
61253;DHT22;47127;47.516;8.596;2024-02-21T12:25:24;12.20;99.90
61253;DHT22;47127;47.516;8.596;2024-02-21T12:27:51;12.20;99.90
61253;DHT22;47127;47.516;8.596;2024-02-21T12:30:17;12.20;99.90
61253;DHT22;47127;47.516;8.596;2024-02-21T12:32:47;12.30;99.90
61253;DHT22;47127;47.516;8.596;2024-02-21T12:35:14;12.40;99.90
61253;DHT22;47127;47.516;8.596;2024-02-21T12:37:39;12.50;99.90
61253;DHT22;47127;47.516;8.596;2024-02-21T12:40:06;12.60;99.90
61253;DHT22;47127;47.516;8.596;2024-02-21T12:42:35;12.70;99.90
61253;DHT22;47127;47.516;8.596;2024-02-21T12:45:02;12.40;99.40
61253;DHT22;47127;47.516;8.596;2024-02-21T12:47:28;12.40;99.90
61253;DHT22;47127;47.516;8.596;2024-02-21T12:49:54;12.40;99.90
61253;DHT22;47127;47.516;8.596;2024-02-21T12:52:20;12.30;99.90
61253;DHT22;47127;47.516;8.596;2024-02-21T12:54:45;12.40;99.90
61253;DHT22;47127;47.516;8.596;2024-02-21T12:57:11;12.40;99.90
61253;DHT22;47127;47.516;8.596;2024-02-21T12:59:37;12.50;99.90
61253;DHT22;47127;47.516;8.596;2024-02-21T13:02:03;12.60;99.90
61253;DHT22;47127;47.516;8.596;2024-02-21T13:04:28;12.50;99.90
61253;DHT22;47127;47.516;8.596;2024-02-21T13:06:54;12.50;99.90
61253;DHT22;47127;47.516;8.596;2024-02-21T13:09:20;12.60;99.90
61253;DHT22;47127;47.516;8.596;2024-02-21T13:11:46;12.80;99.90
61253;DHT22;47127;47.516;8.596;2024-02-21T13:14:12;12.70;99.40
61253;DHT22;47127;47.516;8.596;2024-02-21T13:16:39;12.60;99.90
61253;DHT22;47127;47.516;8.596;2024-02-21T13:19:06;12.60;99.50
61253;DHT22;47127;47.516;8.596;2024-02-21T13:21:34;12.50;99.70
61253;DHT22;47127;47.516;8.596;2024-02-21T13:24:00;12.70;99.90
61253;DHT22;47127;47.516;8.596;2024-02-21T13:26:27;12.80;99.90
61253;DHT22;47127;47.516;8.596;2024-02-21T13:28:53;12.90;99.90
61253;DHT22;47127;47.516;8.596;2024-02-21T13:31:19;12.80;99.70
61253;DHT22;47127;47.516;8.596;2024-02-21T13:33:45;12.90;99.90
61253;DHT22;47127;47.516;8.596;2024-02-21T13:36:11;12.90;99.90
61253;DHT22;47127;47.516;8.596;2024-02-21T13:38:37;13.00;98.70
61253;DHT22;47127;47.516;8.596;2024-02-21T13:41:07;12.80;98.50
61253;DHT22;47127;47.516;8.596;2024-02-21T13:43:33;12.70;98.90
61253;DHT22;47127;47.516;8.596;2024-02-21T13:46:00;12.70;98.90
61253;DHT22;47127;47.516;8.596;2024-02-21T13:48:35;12.70;99.40
61253;DHT22;47127;47.516;8.596;2024-02-21T13:51:00;12.70;98.80
61253;DHT22;47127;47.516;8.596;2024-02-21T13:53:27;12.80;98.80
61253;DHT22;47127;47.516;8.596;2024-02-21T13:55:53;12.80;98.40
61253;DHT22;47127;47.516;8.596;2024-02-21T13:58:19;12.90;98.10
61253;DHT22;47127;47.516;8.596;2024-02-21T14:00:45;12.90;97.50
61253;DHT22;47127;47.516;8.596;2024-02-21T14:03:11;13.00;98.30
61253;DHT22;47127;47.516;8.596;2024-02-21T14:05:36;13.00;97.70
61253;DHT22;47127;47.516;8.596;2024-02-21T14:08:02;13.00;97.10
61253;DHT22;47127;47.516;8.596;2024-02-21T14:10:28;13.10;96.80
61253;DHT22;47127;47.516;8.596;2024-02-21T14:12:53;13.10;96.70
61253;DHT22;47127;47.516;8.596;2024-02-21T14:15:20;13.10;97.50
61253;DHT22;47127;47.516;8.596;2024-02-21T14:17:45;13.00;96.70
61253;DHT22;47127;47.516;8.596;2024-02-21T14:20:11;12.90;96.20
61253;DHT22;47127;47.516;8.596;2024-02-21T14:22:39;13.00;96.60
61253;DHT22;47127;47.516;8.596;2024-02-21T14:25:05;12.90;96.00
61253;DHT22;47127;47.516;8.596;2024-02-21T14:27:31;12.90;96.20
61253;DHT22;47127;47.516;8.596;2024-02-21T14:29:56;12.80;96.30
61253;DHT22;47127;47.516;8.596;2024-02-21T14:32:22;12.90;96.50
61253;DHT22;47127;47.516;8.596;2024-02-21T14:34:48;12.90;96.30
61253;DHT22;47127;47.516;8.596;2024-02-21T14:37:14;13.00;96.20
61253;DHT22;47127;47.516;8.596;2024-02-21T14:39:41;13.10;96.00
61253;DHT22;47127;47.516;8.596;2024-02-21T14:42:07;13.20;95.80
61253;DHT22;47127;47.516;8.596;2024-02-21T14:44:35;13.40;95.80
61253;DHT22;47127;47.516;8.596;2024-02-21T14:47:01;13.40;95.50
61253;DHT22;47127;47.516;8.596;2024-02-21T14:49:28;13.30;95.30
61253;DHT22;47127;47.516;8.596;2024-02-21T14:51:54;13.20;95.30
61253;DHT22;47127;47.516;8.596;2024-02-21T14:54:20;13.30;94.30
61253;DHT22;47127;47.516;8.596;2024-02-21T14:56:45;13.10;94.50
61253;DHT22;47127;47.516;8.596;2024-02-21T14:59:12;13.00;95.10
61253;DHT22;47127;47.516;8.596;2024-02-21T15:01:38;13.00;94.50
61253;DHT22;47127;47.516;8.596;2024-02-21T15:04:04;12.90;94.30
61253;DHT22;47127;47.516;8.596;2024-02-21T15:06:29;12.80;94.20
61253;DHT22;47127;47.516;8.596;2024-02-21T15:08:57;12.80;95.50
61253;DHT22;47127;47.516;8.596;2024-02-21T15:11:23;12.70;95.30
61253;DHT22;47127;47.516;8.596;2024-02-21T15:13:49;12.70;95.20
61253;DHT22;47127;47.516;8.596;2024-02-21T15:16:15;12.50;94.90
61253;DHT22;47127;47.516;8.596;2024-02-21T15:18:42;12.40;94.80
61253;DHT22;47127;47.516;8.596;2024-02-21T15:21:07;12.30;95.10
61253;DHT22;47127;47.516;8.596;2024-02-21T15:23:36;12.30;95.00
61253;DHT22;47127;47.516;8.596;2024-02-21T15:26:01;12.30;95.10
61253;DHT22;47127;47.516;8.596;2024-02-21T15:28:27;12.30;95.10
61253;DHT22;47127;47.516;8.596;2024-02-21T15:30:55;12.20;95.30
61253;DHT22;47127;47.516;8.596;2024-02-21T15:33:22;12.10;95.30
61253;DHT22;47127;47.516;8.596;2024-02-21T15:35:47;12.10;95.40
61253;DHT22;47127;47.516;8.596;2024-02-21T15:38:13;12.10;95.30
61253;DHT22;47127;47.516;8.596;2024-02-21T15:40:39;12.10;95.90